sensor_id;sensor_type;location;lat;lon;timestamp;pressure;altitude;pressure_sealevel;temperature;humidity
55685;BME280;41883;49.544;8.646;2022-08-30T00:01:57;100695.25;;;21.48;nan
55685;BME280;41883;49.544;8.646;2022-08-30T00:04:22;100701.28;;;21.44;nan
55685;BME280;41883;49.544;8.646;2022-08-30T00:06:47;100697.78;;;21.43;nan
55685;BME280;41883;49.544;8.646;2022-08-30T00:09:13;100700.69;;;21.41;nan
55685;BME280;41883;49.544;8.646;2022-08-30T00:11:38;100693.66;;;21.40;nan
55685;BME280;41883;49.544;8.646;2022-08-30T00:14:03;100700.03;;;21.46;nan
55685;BME280;41883;49.544;8.646;2022-08-30T00:16:29;100697.81;;;21.36;nan
55685;BME280;41883;49.544;8.646;2022-08-30T00:18:54;100700.09;;;21.33;nan
55685;BME280;41883;49.544;8.646;2022-08-30T00:21:20;100697.22;;;21.28;nan
55685;BME280;41883;49.544;8.646;2022-08-30T00:23:45;100693.56;;;21.22;nan
55685;BME280;41883;49.544;8.646;2022-08-30T00:26:11;100693.38;;;21.17;nan
55685;BME280;41883;49.544;8.646;2022-08-30T00:28:36;100697.72;;;21.18;nan
55685;BME280;41883;49.544;8.646;2022-08-30T00:31:02;100706.84;;;21.17;nan
55685;BME280;41883;49.544;8.646;2022-08-30T00:33:28;100707.69;;;21.11;nan
55685;BME280;41883;49.544;8.646;2022-08-30T00:35:54;100702.34;;;21.04;nan
55685;BME280;41883;49.544;8.646;2022-08-30T00:38:20;100705.28;;;21.03;nan
55685;BME280;41883;49.544;8.646;2022-08-30T00:40:47;100708.63;;;20.98;nan
55685;BME280;41883;49.544;8.646;2022-08-30T00:43:17;100701.84;;;20.89;nan
55685;BME280;41883;49.544;8.646;2022-08-30T00:45:45;100702.50;;;20.77;nan
55685;BME280;41883;49.544;8.646;2022-08-30T00:48:10;100702.34;;;20.66;nan
55685;BME280;41883;49.544;8.646;2022-08-30T00:50:43;100707.53;;;20.67;nan
55685;BME280;41883;49.544;8.646;2022-08-30T00:53:14;100711.28;;;20.60;nan
55685;BME280;41883;49.544;8.646;2022-08-30T00:55:42;100713.16;;;20.52;nan
55685;BME280;41883;49.544;8.646;2022-08-30T00:58:10;100719.34;;;20.46;nan
55685;BME280;41883;49.544;8.646;2022-08-30T01:00:37;100722.06;;;20.40;nan
55685;BME280;41883;49.544;8.646;2022-08-30T01:03:02;100723.31;;;20.37;nan
55685;BME280;41883;49.544;8.646;2022-08-30T01:05:28;100728.50;;;20.32;nan
55685;BME280;41883;49.544;8.646;2022-08-30T01:07:54;100723.31;;;20.30;nan
55685;BME280;41883;49.544;8.646;2022-08-30T01:10:19;100721.88;;;20.28;nan
55685;BME280;41883;49.544;8.646;2022-08-30T01:12:45;100714.88;;;20.33;nan
55685;BME280;41883;49.544;8.646;2022-08-30T01:15:12;100722.06;;;20.33;nan
55685;BME280;41883;49.544;8.646;2022-08-30T01:17:42;100715.91;;;20.26;nan
55685;BME280;41883;49.544;8.646;2022-08-30T01:20:12;100724.19;;;20.18;nan
55685;BME280;41883;49.544;8.646;2022-08-30T01:25:12;100720.88;;;20.22;nan
55685;BME280;41883;49.544;8.646;2022-08-30T01:27:43;100723.56;;;20.29;nan
55685;BME280;41883;49.544;8.646;2022-08-30T01:30:10;100728.69;;;20.37;nan
55685;BME280;41883;49.544;8.646;2022-08-30T01:32:42;100728.66;;;20.44;nan
55685;BME280;41883;49.544;8.646;2022-08-30T01:35:08;100722.66;;;20.48;nan
55685;BME280;41883;49.544;8.646;2022-08-30T01:37:35;100712.31;;;20.52;nan
55685;BME280;41883;49.544;8.646;2022-08-30T01:40:01;100715.59;;;20.54;nan
55685;BME280;41883;49.544;8.646;2022-08-30T01:42:26;100721.22;;;20.52;nan
55685;BME280;41883;49.544;8.646;2022-08-30T01:44:52;100717.09;;;20.50;nan
55685;BME280;41883;49.544;8.646;2022-08-30T01:47:18;100715.84;;;20.46;nan
55685;BME280;41883;49.544;8.646;2022-08-30T01:49:44;100721.03;;;20.41;nan
55685;BME280;41883;49.544;8.646;2022-08-30T01:52:11;100723.31;;;20.37;nan
55685;BME280;41883;49.544;8.646;2022-08-30T01:54:39;100719.81;;;20.36;nan
55685;BME280;41883;49.544;8.646;2022-08-30T01:57:07;100714.25;;;20.31;nan
55685;BME280;41883;49.544;8.646;2022-08-30T01:59:34;100710.94;;;20.29;nan
55685;BME280;41883;49.544;8.646;2022-08-30T02:02:00;100708.25;;;20.29;nan
55685;BME280;41883;49.544;8.646;2022-08-30T02:04:25;100702.88;;;20.29;nan
55685;BME280;41883;49.544;8.646;2022-08-30T02:06:51;100706.63;;;20.22;nan
55685;BME280;41883;49.544;8.646;2022-08-30T02:09:17;100708.53;;;20.14;nan
55685;BME280;41883;49.544;8.646;2022-08-30T02:11:42;100707.28;;;20.04;nan
55685;BME280;41883;49.544;8.646;2022-08-30T02:14:08;100719.69;;;19.91;nan
55685;BME280;41883;49.544;8.646;2022-08-30T02:16:33;100716.81;;;19.73;nan
55685;BME280;41883;49.544;8.646;2022-08-30T02:18:59;100717.19;;;19.57;nan
55685;BME280;41883;49.544;8.646;2022-08-30T02:21:25;100725.88;;;19.45;nan
55685;BME280;41883;49.544;8.646;2022-08-30T02:23:51;100725.25;;;19.37;nan
55685;BME280;41883;49.544;8.646;2022-08-30T02:26:18;100725.66;;;19.27;nan
55685;BME280;41883;49.544;8.646;2022-08-30T02:28:44;100724.00;;;19.19;nan
55685;BME280;41883;49.544;8.646;2022-08-30T02:31:10;100722.72;;;19.08;nan
55685;BME280;41883;49.544;8.646;2022-08-30T02:33:36;100715.06;;;18.99;nan
55685;BME280;41883;49.544;8.646;2022-08-30T02:36:03;100708.47;;;18.88;nan
55685;BME280;41883;49.544;8.646;2022-08-30T02:38:28;100711.13;;;18.81;nan
55685;BME280;41883;49.544;8.646;2022-08-30T02:40:53;100713.09;;;18.73;nan
55685;BME280;41883;49.544;8.646;2022-08-30T02:43:19;100708.56;;;18.66;nan
55685;BME280;41883;49.544;8.646;2022-08-30T02:45:44;100715.75;;;18.66;nan
55685;BME280;41883;49.544;8.646;2022-08-30T02:48:09;100712.25;;;18.65;nan
55685;BME280;41883;49.544;8.646;2022-08-30T02:50:39;100708.75;;;18.65;nan
55685;BME280;41883;49.544;8.646;2022-08-30T02:53:04;100702.63;;;18.71;nan
55685;BME280;41883;49.544;8.646;2022-08-30T02:55:30;100699.38;;;18.82;nan
55685;BME280;41883;49.544;8.646;2022-08-30T02:57:55;100696.28;;;18.92;nan
55685;BME280;41883;49.544;8.646;2022-08-30T03:00:21;100688.91;;;19.01;nan
55685;BME280;41883;49.544;8.646;2022-08-30T03:02:47;100692.41;;;19.08;nan
55685;BME280;41883;49.544;8.646;2022-08-30T03:05:14;100687.06;;;19.15;nan
55685;BME280;41883;49.544;8.646;2022-08-30T03:07:40;100696.38;;;19.19;nan
55685;BME280;41883;49.544;8.646;2022-08-30T03:10:06;100695.31;;;19.20;nan
55685;BME280;41883;49.544;8.646;2022-08-30T03:12:32;100696.97;;;19.21;nan
55685;BME280;41883;49.544;8.646;2022-08-30T03:14:58;100695.31;;;19.20;nan
55685;BME280;41883;49.544;8.646;2022-08-30T03:17:23;100699.25;;;19.17;nan
55685;BME280;41883;49.544;8.646;2022-08-30T03:19:48;100691.00;;;19.12;nan
55685;BME280;41883;49.544;8.646;2022-08-30T03:22:14;100682.72;;;19.00;nan
55685;BME280;41883;49.544;8.646;2022-08-30T03:24:39;100692.50;;;18.66;nan
55685;BME280;41883;49.544;8.646;2022-08-30T03:27:05;100696.28;;;18.37;nan
55685;BME280;41883;49.544;8.646;2022-08-30T03:29:31;100695.72;;;18.14;nan
55685;BME280;41883;49.544;8.646;2022-08-30T03:31:56;100691.09;;;17.94;nan
55685;BME280;41883;49.544;8.646;2022-08-30T03:34:23;100691.84;;;17.81;nan
55685;BME280;41883;49.544;8.646;2022-08-30T03:36:50;100691.38;;;17.78;nan
55685;BME280;41883;49.544;8.646;2022-08-30T03:39:16;100678.22;;;17.76;nan
55685;BME280;41883;49.544;8.646;2022-08-30T03:41:42;100682.09;;;17.74;nan
55685;BME280;41883;49.544;8.646;2022-08-30T03:44:07;100686.53;;;17.88;nan
55685;BME280;41883;49.544;8.646;2022-08-30T03:46:32;100682.28;;;18.00;nan
55685;BME280;41883;49.544;8.646;2022-08-30T03:48:58;100681.94;;;18.10;nan
55685;BME280;41883;49.544;8.646;2022-08-30T03:51:23;100685.75;;;17.94;nan
55685;BME280;41883;49.544;8.646;2022-08-30T03:53:49;100683.50;;;17.70;nan
55685;BME280;41883;49.544;8.646;2022-08-30T03:56:15;100682.47;;;17.43;nan
55685;BME280;41883;49.544;8.646;2022-08-30T03:58:40;100689.94;;;17.26;nan
55685;BME280;41883;49.544;8.646;2022-08-30T04:01:06;100685.03;;;17.08;nan
55685;BME280;41883;49.544;8.646;2022-08-30T04:03:32;100686.09;;;16.92;nan
55685;BME280;41883;49.544;8.646;2022-08-30T04:05:58;100684.94;;;16.80;nan
55685;BME280;41883;49.544;8.646;2022-08-30T04:08:25;100683.75;;;16.67;nan
55685;BME280;41883;49.544;8.646;2022-08-30T04:10:50;100687.53;;;16.58;nan
55685;BME280;41883;49.544;8.646;2022-08-30T04:13:17;100681.84;;;16.46;nan
55685;BME280;41883;49.544;8.646;2022-08-30T04:15:43;100679.63;;;16.35;nan
55685;BME280;41883;49.544;8.646;2022-08-30T04:18:08;100683.44;;;16.26;nan
55685;BME280;41883;49.544;8.646;2022-08-30T04:20:34;100679.38;;;16.15;nan
55685;BME280;41883;49.544;8.646;2022-08-30T04:22:59;100685.19;;;16.04;nan
55685;BME280;41883;49.544;8.646;2022-08-30T04:25:26;100692.09;;;15.98;nan
55685;BME280;41883;49.544;8.646;2022-08-30T04:27:51;100699.53;;;15.88;nan
55685;BME280;41883;49.544;8.646;2022-08-30T04:30:17;100695.75;;;15.82;nan
55685;BME280;41883;49.544;8.646;2022-08-30T04:32:43;100700.63;;;15.79;nan
55685;BME280;41883;49.544;8.646;2022-08-30T04:35:10;100697.47;;;15.75;nan
55685;BME280;41883;49.544;8.646;2022-08-30T04:37:37;100698.88;;;15.71;nan
55685;BME280;41883;49.544;8.646;2022-08-30T04:40:03;100709.84;;;15.68;nan
55685;BME280;41883;49.544;8.646;2022-08-30T04:42:31;100718.84;;;15.67;nan
55685;BME280;41883;49.544;8.646;2022-08-30T04:44:57;100702.59;;;15.62;nan
55685;BME280;41883;49.544;8.646;2022-08-30T04:47:24;100705.41;;;15.60;nan
55685;BME280;41883;49.544;8.646;2022-08-30T04:49:51;100692.25;;;15.59;nan
55685;BME280;41883;49.544;8.646;2022-08-30T04:52:16;100702.91;;;15.59;nan
55685;BME280;41883;49.544;8.646;2022-08-30T04:54:42;100705.78;;;15.57;nan
55685;BME280;41883;49.544;8.646;2022-08-30T04:57:07;100711.28;;;15.56;nan
55685;BME280;41883;49.544;8.646;2022-08-30T04:59:32;100708.50;;;15.49;nan
55685;BME280;41883;49.544;8.646;2022-08-30T05:01:58;100722.19;;;15.46;nan
55685;BME280;41883;49.544;8.646;2022-08-30T05:04:24;100726.03;;;15.43;nan
55685;BME280;41883;49.544;8.646;2022-08-30T05:06:49;100727.06;;;15.42;nan
55685;BME280;41883;49.544;8.646;2022-08-30T05:09:15;100731.22;;;15.45;nan
55685;BME280;41883;49.544;8.646;2022-08-30T05:11:40;100729.00;;;15.48;nan
55685;BME280;41883;49.544;8.646;2022-08-30T05:14:07;100732.97;;;15.53;nan
55685;BME280;41883;49.544;8.646;2022-08-30T05:16:33;100737.41;;;15.60;nan
55685;BME280;41883;49.544;8.646;2022-08-30T05:18:58;100733.00;;;15.67;nan
55685;BME280;41883;49.544;8.646;2022-08-30T05:21:25;100735.66;;;15.76;nan
55685;BME280;41883;49.544;8.646;2022-08-30T05:23:57;100736.66;;;15.89;nan
55685;BME280;41883;49.544;8.646;2022-08-30T05:26:26;100736.50;;;16.06;nan
55685;BME280;41883;49.544;8.646;2022-08-30T05:28:52;100737.00;;;16.24;nan
55685;BME280;41883;49.544;8.646;2022-08-30T05:33:45;100747.09;;;16.59;nan
55685;BME280;41883;49.544;8.646;2022-08-30T05:36:12;100745.41;;;16.72;nan
55685;BME280;41883;49.544;8.646;2022-08-30T05:38:39;100750.03;;;16.93;nan
55685;BME280;41883;49.544;8.646;2022-08-30T05:41:05;100743.88;;;17.14;nan
55685;BME280;41883;49.544;8.646;2022-08-30T05:43:31;100745.34;;;17.38;nan
55685;BME280;41883;49.544;8.646;2022-08-30T05:46:10;100751.13;;;17.63;nan
55685;BME280;41883;49.544;8.646;2022-08-30T05:48:36;100752.78;;;17.86;nan
55685;BME280;41883;49.544;8.646;2022-08-30T05:51:08;100753.38;;;18.10;nan
55685;BME280;41883;49.544;8.646;2022-08-30T05:53:35;100756.22;;;18.36;nan
55685;BME280;41883;49.544;8.646;2022-08-30T05:56:02;100750.84;;;18.71;nan
55685;BME280;41883;49.544;8.646;2022-08-30T05:58:28;100756.31;;;18.98;nan
55685;BME280;41883;49.544;8.646;2022-08-30T06:00:54;100748.50;;;19.16;nan
55685;BME280;41883;49.544;8.646;2022-08-30T06:03:19;100744.00;;;19.30;nan
55685;BME280;41883;49.544;8.646;2022-08-30T06:05:44;100744.25;;;19.55;nan
55685;BME280;41883;49.544;8.646;2022-08-30T06:08:10;100750.25;;;19.70;nan
55685;BME280;41883;49.544;8.646;2022-08-30T06:10:35;100745.28;;;19.94;nan
55685;BME280;41883;49.544;8.646;2022-08-30T06:13:00;100741.16;;;20.05;nan
55685;BME280;41883;49.544;8.646;2022-08-30T06:15:25;100743.41;;;20.08;nan
55685;BME280;41883;49.544;8.646;2022-08-30T06:17:51;100732.88;;;20.20;nan
55685;BME280;41883;49.544;8.646;2022-08-30T06:20:16;100743.16;;;20.36;nan
55685;BME280;41883;49.544;8.646;2022-08-30T06:22:44;100731.75;;;20.47;nan
55685;BME280;41883;49.544;8.646;2022-08-30T06:25:10;100742.84;;;20.71;nan
55685;BME280;41883;49.544;8.646;2022-08-30T06:27:36;100742.75;;;20.97;nan
55685;BME280;41883;49.544;8.646;2022-08-30T06:30:02;100739.97;;;21.11;nan
55685;BME280;41883;49.544;8.646;2022-08-30T06:32:27;100751.63;;;21.30;nan
55685;BME280;41883;49.544;8.646;2022-08-30T06:34:53;100754.66;;;21.47;nan
55685;BME280;41883;49.544;8.646;2022-08-30T06:37:18;100749.19;;;21.60;nan
55685;BME280;41883;49.544;8.646;2022-08-30T06:39:43;100748.75;;;21.63;nan
55685;BME280;41883;49.544;8.646;2022-08-30T06:42:09;100749.19;;;21.60;nan
55685;BME280;41883;49.544;8.646;2022-08-30T06:44:34;100753.66;;;21.66;nan
55685;BME280;41883;49.544;8.646;2022-08-30T06:46:59;100757.69;;;21.82;nan
55685;BME280;41883;49.544;8.646;2022-08-30T06:49:24;100758.81;;;22.18;nan
55685;BME280;41883;49.544;8.646;2022-08-30T06:51:52;100756.22;;;22.66;nan
55685;BME280;41883;49.544;8.646;2022-08-30T06:54:17;100756.47;;;23.14;nan
55685;BME280;41883;49.544;8.646;2022-08-30T06:56:43;100751.06;;;23.56;nan
55685;BME280;41883;49.544;8.646;2022-08-30T06:59:08;100751.34;;;24.13;nan
55685;BME280;41883;49.544;8.646;2022-08-30T07:01:34;100759.28;;;24.55;nan
55685;BME280;41883;49.544;8.646;2022-08-30T07:03:59;100754.53;;;24.74;nan
55685;BME280;41883;49.544;8.646;2022-08-30T07:06:26;100754.13;;;24.94;nan
55685;BME280;41883;49.544;8.646;2022-08-30T07:08:52;100757.56;;;25.18;nan
55685;BME280;41883;49.544;8.646;2022-08-30T07:11:30;100759.00;;;25.37;nan
55685;BME280;41883;49.544;8.646;2022-08-30T07:13:56;100761.22;;;25.57;nan
55685;BME280;41883;49.544;8.646;2022-08-30T07:16:21;100759.44;;;25.63;nan
55685;BME280;41883;49.544;8.646;2022-08-30T07:18:47;100758.91;;;25.83;nan
55685;BME280;41883;49.544;8.646;2022-08-30T07:21:18;100764.69;;;26.03;nan
55685;BME280;41883;49.544;8.646;2022-08-30T07:23:44;100776.38;;;26.26;nan
55685;BME280;41883;49.544;8.646;2022-08-30T07:26:12;100768.59;;;26.52;nan
55685;BME280;41883;49.544;8.646;2022-08-30T07:28:40;100774.09;;;26.57;nan
55685;BME280;41883;49.544;8.646;2022-08-30T07:31:06;100775.63;;;26.53;nan
55685;BME280;41883;49.544;8.646;2022-08-30T07:33:32;100767.34;;;26.59;nan
55685;BME280;41883;49.544;8.646;2022-08-30T07:35:57;100776.25;;;26.55;nan
55685;BME280;41883;49.544;8.646;2022-08-30T07:38:24;100775.06;;;26.67;nan
55685;BME280;41883;49.544;8.646;2022-08-30T07:40:49;100780.41;;;26.84;nan
55685;BME280;41883;49.544;8.646;2022-08-30T07:43:14;100773.91;;;27.35;nan
55685;BME280;41883;49.544;8.646;2022-08-30T07:45:40;100774.16;;;27.65;nan
55685;BME280;41883;49.544;8.646;2022-08-30T07:48:05;100780.56;;;27.86;nan
55685;BME280;41883;49.544;8.646;2022-08-30T07:50:31;100784.53;;;28.06;nan
55685;BME280;41883;49.544;8.646;2022-08-30T07:52:57;100783.97;;;27.71;nan
55685;BME280;41883;49.544;8.646;2022-08-30T07:55:22;100784.84;;;27.45;nan
55685;BME280;41883;49.544;8.646;2022-08-30T07:57:48;100785.59;;;27.67;nan
55685;BME280;41883;49.544;8.646;2022-08-30T08:00:13;100786.06;;;27.91;nan
55685;BME280;41883;49.544;8.646;2022-08-30T08:02:39;100773.72;;;28.16;nan
55685;BME280;41883;49.544;8.646;2022-08-30T08:05:06;100775.66;;;28.21;nan
55685;BME280;41883;49.544;8.646;2022-08-30T08:07:33;100782.66;;;28.59;nan
55685;BME280;41883;49.544;8.646;2022-08-30T08:09:58;100782.00;;;29.05;nan
55685;BME280;41883;49.544;8.646;2022-08-30T08:12:24;100779.06;;;29.27;nan
55685;BME280;41883;49.544;8.646;2022-08-30T08:14:49;100778.28;;;29.52;nan
55685;BME280;41883;49.544;8.646;2022-08-30T08:17:14;100780.22;;;29.82;nan
55685;BME280;41883;49.544;8.646;2022-08-30T08:19:40;100776.31;;;30.19;nan
55685;BME280;41883;49.544;8.646;2022-08-30T08:22:05;100775.88;;;30.66;nan
55685;BME280;41883;49.544;8.646;2022-08-30T08:24:30;100777.31;;;31.14;nan
55685;BME280;41883;49.544;8.646;2022-08-30T08:26:56;100771.13;;;31.32;nan
55685;BME280;41883;49.544;8.646;2022-08-30T08:29:22;100770.50;;;31.11;nan
55685;BME280;41883;49.544;8.646;2022-08-30T08:31:48;100757.91;;;30.65;nan
55685;BME280;41883;49.544;8.646;2022-08-30T08:34:13;100767.78;;;30.51;nan
55685;BME280;41883;49.544;8.646;2022-08-30T08:36:39;100764.31;;;30.15;nan
55685;BME280;41883;49.544;8.646;2022-08-30T08:39:07;100756.75;;;29.96;nan
55685;BME280;41883;49.544;8.646;2022-08-30T08:41:58;100768.31;;;30.48;nan
55685;BME280;41883;49.544;8.646;2022-08-30T08:47:38;100758.88;;;30.90;nan
55685;BME280;41883;49.544;8.646;2022-08-30T08:50:11;100752.81;;;30.98;nan
55685;BME280;41883;49.544;8.646;2022-08-30T08:52:53;100753.72;;;30.83;nan
55685;BME280;41883;49.544;8.646;2022-08-30T08:55:41;100761.22;;;31.07;nan
55685;BME280;41883;49.544;8.646;2022-08-30T08:58:20;100758.34;;;31.27;nan
55685;BME280;41883;49.544;8.646;2022-08-30T09:00:46;100760.97;;;31.43;nan
55685;BME280;41883;49.544;8.646;2022-08-30T09:03:13;100751.41;;;31.45;nan
55685;BME280;41883;49.544;8.646;2022-08-30T09:05:41;100760.13;;;31.47;nan
55685;BME280;41883;49.544;8.646;2022-08-30T09:08:11;100756.13;;;32.22;nan
55685;BME280;41883;49.544;8.646;2022-08-30T09:10:39;100758.56;;;32.91;nan
55685;BME280;41883;49.544;8.646;2022-08-30T09:13:05;100756.44;;;33.39;nan
55685;BME280;41883;49.544;8.646;2022-08-30T09:15:32;100741.81;;;34.23;nan
55685;BME280;41883;49.544;8.646;2022-08-30T09:18:03;100748.81;;;34.94;nan
55685;BME280;41883;49.544;8.646;2022-08-30T09:20:37;100747.63;;;35.45;nan
55685;BME280;41883;49.544;8.646;2022-08-30T09:26:06;100749.66;;;36.33;nan
55685;BME280;41883;49.544;8.646;2022-08-30T09:28:42;100732.91;;;37.13;nan
55685;BME280;41883;49.544;8.646;2022-08-30T09:33:55;100731.00;;;38.16;nan
55685;BME280;41883;49.544;8.646;2022-08-30T09:36:48;100727.03;;;38.56;nan
55685;BME280;41883;49.544;8.646;2022-08-30T09:39:26;100726.00;;;38.60;nan
55685;BME280;41883;49.544;8.646;2022-08-30T09:41:52;100723.66;;;38.20;nan
55685;BME280;41883;49.544;8.646;2022-08-30T09:44:22;100719.97;;;38.16;nan
55685;BME280;41883;49.544;8.646;2022-08-30T09:54:36;100710.63;;;39.26;nan
55685;BME280;41883;49.544;8.646;2022-08-30T10:02:31;100700.75;;;40.07;nan
55685;BME280;41883;49.544;8.646;2022-08-30T10:05:04;100703.16;;;39.97;nan
55685;BME280;41883;49.544;8.646;2022-08-30T10:07:45;100700.63;;;40.04;nan
55685;BME280;41883;49.544;8.646;2022-08-30T10:10:31;100698.25;;;40.43;nan
55685;BME280;41883;49.544;8.646;2022-08-30T10:16:14;100688.75;;;42.23;nan
55685;BME280;41883;49.544;8.646;2022-08-30T10:21:32;100681.00;;;42.88;nan
55685;BME280;41883;49.544;8.646;2022-08-30T10:24:09;100671.13;;;43.59;nan
55685;BME280;41883;49.544;8.646;2022-08-30T10:27:07;100669.19;;;43.37;nan
55685;BME280;41883;49.544;8.646;2022-08-30T10:29:45;100669.53;;;43.58;nan
55685;BME280;41883;49.544;8.646;2022-08-30T10:32:22;100662.84;;;44.13;nan
55685;BME280;41883;49.544;8.646;2022-08-30T10:34:53;100662.81;;;44.77;nan
55685;BME280;41883;49.544;8.646;2022-08-30T10:37:25;100662.97;;;45.25;nan
55685;BME280;41883;49.544;8.646;2022-08-30T10:39:56;100665.28;;;45.64;nan
55685;BME280;41883;49.544;8.646;2022-08-30T10:42:29;100659.31;;;45.69;nan
55685;BME280;41883;49.544;8.646;2022-08-30T10:45:02;100658.63;;;44.90;nan
55685;BME280;41883;49.544;8.646;2022-08-30T10:47:42;100653.00;;;44.52;nan
55685;BME280;41883;49.544;8.646;2022-08-30T10:52:56;100655.75;;;44.83;nan
55685;BME280;41883;49.544;8.646;2022-08-30T10:55:25;100658.97;;;43.94;nan
55685;BME280;41883;49.544;8.646;2022-08-30T10:57:58;100644.34;;;42.43;nan
55685;BME280;41883;49.544;8.646;2022-08-30T11:00:28;100649.50;;;41.90;nan
55685;BME280;41883;49.544;8.646;2022-08-30T11:05:57;100646.44;;;42.30;nan
55685;BME280;41883;49.544;8.646;2022-08-30T11:14:05;100638.25;;;38.78;nan
55685;BME280;41883;49.544;8.646;2022-08-30T11:16:37;100645.72;;;39.69;nan
55685;BME280;41883;49.544;8.646;2022-08-30T11:19:33;100647.81;;;41.37;nan
55685;BME280;41883;49.544;8.646;2022-08-30T11:22:11;100637.84;;;42.00;nan
55685;BME280;41883;49.544;8.646;2022-08-30T11:27:54;100641.56;;;41.56;nan
55685;BME280;41883;49.544;8.646;2022-08-30T11:35:42;100635.78;;;43.37;nan
55685;BME280;41883;49.544;8.646;2022-08-30T11:48:53;100623.00;;;44.42;nan
55685;BME280;41883;49.544;8.646;2022-08-30T11:57:21;100632.56;;;44.79;nan
55685;BME280;41883;49.544;8.646;2022-08-30T12:02:47;100620.06;;;40.09;nan
55685;BME280;41883;49.544;8.646;2022-08-30T12:10:56;100608.53;;;38.87;nan
55685;BME280;41883;49.544;8.646;2022-08-30T12:16:14;100606.97;;;37.73;nan
55685;BME280;41883;49.544;8.646;2022-08-30T12:18:44;100606.13;;;36.87;nan
55685;BME280;41883;49.544;8.646;2022-08-30T12:23:50;100596.88;;;36.13;nan
55685;BME280;41883;49.544;8.646;2022-08-30T12:29:04;100609.75;;;35.69;nan
55685;BME280;41883;49.544;8.646;2022-08-30T12:31:31;100597.41;;;35.04;nan
55685;BME280;41883;49.544;8.646;2022-08-30T12:33:59;100600.63;;;34.97;nan
55685;BME280;41883;49.544;8.646;2022-08-30T12:36:37;100597.59;;;35.07;nan
55685;BME280;41883;49.544;8.646;2022-08-30T12:39:17;100597.53;;;34.99;nan
55685;BME280;41883;49.544;8.646;2022-08-30T12:41:44;100598.94;;;34.65;nan
55685;BME280;41883;49.544;8.646;2022-08-30T12:44:23;100597.28;;;34.41;nan
55685;BME280;41883;49.544;8.646;2022-08-30T12:46:56;100595.91;;;34.30;nan
55685;BME280;41883;49.544;8.646;2022-08-30T12:49:25;100594.88;;;34.40;nan
55685;BME280;41883;49.544;8.646;2022-08-30T12:51:52;100592.72;;;34.37;nan
55685;BME280;41883;49.544;8.646;2022-08-30T12:54:24;100591.50;;;34.43;nan
55685;BME280;41883;49.544;8.646;2022-08-30T12:57:00;100576.72;;;34.16;nan
55685;BME280;41883;49.544;8.646;2022-08-30T12:59:44;100580.91;;;34.14;nan
55685;BME280;41883;49.544;8.646;2022-08-30T13:02:13;100582.22;;;34.02;nan
55685;BME280;41883;49.544;8.646;2022-08-30T13:04:39;100577.97;;;33.41;nan
55685;BME280;41883;49.544;8.646;2022-08-30T13:07:04;100577.28;;;33.03;nan
55685;BME280;41883;49.544;8.646;2022-08-30T13:09:38;100578.56;;;32.77;nan
55685;BME280;41883;49.544;8.646;2022-08-30T13:12:06;100576.13;;;32.57;nan
55685;BME280;41883;49.544;8.646;2022-08-30T13:14:35;100565.63;;;32.45;nan
55685;BME280;41883;49.544;8.646;2022-08-30T13:17:30;100562.78;;;32.69;nan
55685;BME280;41883;49.544;8.646;2022-08-30T13:22:38;100562.16;;;32.58;nan
55685;BME280;41883;49.544;8.646;2022-08-30T13:25:05;100559.00;;;32.51;nan
55685;BME280;41883;49.544;8.646;2022-08-30T13:27:31;100553.81;;;32.50;nan
55685;BME280;41883;49.544;8.646;2022-08-30T13:30:08;100547.25;;;32.46;nan
55685;BME280;41883;49.544;8.646;2022-08-30T13:32:34;100550.16;;;32.35;nan
55685;BME280;41883;49.544;8.646;2022-08-30T13:35:02;100542.75;;;32.36;nan
55685;BME280;41883;49.544;8.646;2022-08-30T13:37:28;100544.09;;;32.38;nan
55685;BME280;41883;49.544;8.646;2022-08-30T13:39:54;100542.16;;;32.39;nan
55685;BME280;41883;49.544;8.646;2022-08-30T13:42:19;100537.09;;;32.32;nan
55685;BME280;41883;49.544;8.646;2022-08-30T13:44:45;100535.88;;;32.38;nan
55685;BME280;41883;49.544;8.646;2022-08-30T13:47:11;100534.63;;;32.31;nan
55685;BME280;41883;49.544;8.646;2022-08-30T13:49:37;100531.19;;;32.25;nan
55685;BME280;41883;49.544;8.646;2022-08-30T13:52:05;100520.66;;;32.32;nan
55685;BME280;41883;49.544;8.646;2022-08-30T13:54:31;100524.59;;;32.26;nan
55685;BME280;41883;49.544;8.646;2022-08-30T13:56:57;100521.50;;;32.14;nan
55685;BME280;41883;49.544;8.646;2022-08-30T13:59:23;100525.56;;;31.98;nan
55685;BME280;41883;49.544;8.646;2022-08-30T14:01:50;100521.75;;;31.93;nan
55685;BME280;41883;49.544;8.646;2022-08-30T14:04:16;100524.63;;;31.83;nan
55685;BME280;41883;49.544;8.646;2022-08-30T14:06:42;100514.28;;;31.80;nan
55685;BME280;41883;49.544;8.646;2022-08-30T14:09:08;100516.56;;;31.73;nan
55685;BME280;41883;49.544;8.646;2022-08-30T14:11:34;100515.53;;;31.69;nan
55685;BME280;41883;49.544;8.646;2022-08-30T14:14:00;100516.94;;;31.66;nan
55685;BME280;41883;49.544;8.646;2022-08-30T14:16:26;100511.97;;;31.68;nan
55685;BME280;41883;49.544;8.646;2022-08-30T14:18:52;100515.25;;;31.70;nan
55685;BME280;41883;49.544;8.646;2022-08-30T14:21:17;100511.03;;;31.78;nan
55685;BME280;41883;49.544;8.646;2022-08-30T14:23:43;100505.78;;;31.82;nan
55685;BME280;41883;49.544;8.646;2022-08-30T14:26:12;100503.41;;;31.94;nan
55685;BME280;41883;49.544;8.646;2022-08-30T14:28:39;100492.56;;;32.08;nan
55685;BME280;41883;49.544;8.646;2022-08-30T14:31:04;100487.53;;;32.15;nan
55685;BME280;41883;49.544;8.646;2022-08-30T14:33:29;100493.53;;;32.17;nan
55685;BME280;41883;49.544;8.646;2022-08-30T14:35:55;100483.47;;;32.12;nan
55685;BME280;41883;49.544;8.646;2022-08-30T14:38:20;100478.25;;;32.16;nan
55685;BME280;41883;49.544;8.646;2022-08-30T14:40:45;100475.06;;;32.09;nan
55685;BME280;41883;49.544;8.646;2022-08-30T14:43:10;100484.72;;;32.01;nan